Time;durP1;ratioP1;P1;durP2;ratioP2;P2;SDS_P1;SDS_P2;PMS_P1;PMS_P2;Temp;Humidity;BMP_temperature;BMP_pressure;BME280_temperature;BME280_humidity;BME280_pressure;Samples;Min_cycle;Max_cycle;Signal;HPM_P1;HPM_P2
2022/07/05 00:00:49;;;;;;;11.08;6.95;;;;;;;19.27;86.22;98100.23;1750727;81;21497;-62
2022/07/05 00:03:16;;;;;;;8.43;7.12;;;;;;;19.25;86.41;98099.79;1750511;82;21173;-60
2022/07/05 00:05:42;;;;;;;8.05;7.15;;;;;;;19.23;86.57;98103.42;1750473;82;20975;-60
2022/07/05 00:08:09;;;;;;;8.15;6.25;;;;;;;19.22;86.72;98097.78;1750630;82;20977;-61
2022/07/05 00:10:36;;;;;;;8.25;7.17;;;;;;;19.21;86.89;98100.27;1750823;82;21438;-63
2022/07/05 00:13:04;;;;;;;7.65;6.95;;;;;;;19.20;87.17;98101.38;1750555;82;20903;-61
2022/07/05 00:15:31;;;;;;;8.03;6.60;;;;;;;19.20;87.38;98090.52;1750539;82;21268;-62
2022/07/05 00:17:57;;;;;;;8.55;7.25;;;;;;;19.20;87.37;98092.67;1750568;82;20981;-61
2022/07/05 00:20:24;;;;;;;10.40;7.08;;;;;;;19.16;87.26;98093.71;1750536;82;20942;-62
2022/07/05 00:22:51;;;;;;;10.78;6.35;;;;;;;19.08;87.18;98094.86;1750482;82;21002;-64
2022/07/05 00:25:18;;;;;;;9.55;7.00;;;;;;;19.03;87.33;98089.66;1750548;82;20986;-64
2022/07/05 00:27:44;;;;;;;8.58;6.60;;;;;;;19.00;87.38;98086.30;1750526;82;21104;-62
2022/07/05 00:30:13;;;;;;;7.55;6.78;;;;;;;18.98;87.53;98091.25;1750443;82;20958;-62
2022/07/05 00:32:39;;;;;;;7.58;6.45;;;;;;;18.97;87.62;98081.55;1750785;82;20899;-61
2022/07/05 00:35:07;;;;;;;7.80;7.00;;;;;;;18.98;87.71;98087.18;1750499;82;20935;-62
2022/07/05 00:37:35;;;;;;;7.15;6.35;;;;;;;18.99;87.83;98079.27;1750835;82;21398;-63
2022/07/05 00:40:04;;;;;;;10.48;7.17;;;;;;;18.99;87.81;98085.26;1750521;82;21215;-59
2022/07/05 00:42:30;;;;;;;6.85;6.15;;;;;;;18.96;87.92;98075.88;1750768;82;20994;-62
2022/07/05 00:44:57;;;;;;;7.33;6.62;;;;;;;18.94;87.95;98074.08;1750621;82;20926;-59
2022/07/05 00:47:24;;;;;;;7.83;7.05;;;;;;;18.95;88.10;98081.09;1750595;82;20883;-60
2022/07/05 00:49:50;;;;;;;8.55;6.62;;;;;;;18.93;88.00;98077.94;1750528;82;20982;-61
2022/07/05 00:52:17;;;;;;;9.55;6.60;;;;;;;18.85;87.84;98078.05;1750505;82;21100;-60
2022/07/05 00:54:43;;;;;;;10.50;6.75;;;;;;;18.74;87.91;98077.73;1750446;82;20895;-61
2022/07/05 00:57:10;;;;;;;9.05;6.90;;;;;;;18.67;88.07;98084.30;1750599;82;20974;-61
2022/07/05 00:59:37;;;;;;;8.83;6.85;;;;;;;18.61;88.12;98086.20;1750411;81;20914;-63
2022/07/05 01:02:03;;;;;;;8.33;6.90;;;;;;;18.51;88.38;98079.34;1750459;82;20946;-60
2022/07/05 01:04:30;;;;;;;9.65;7.05;;;;;;;18.50;88.50;98083.73;1750497;82;21117;-63
2022/07/05 01:06:57;;;;;;;8.18;6.65;;;;;;;18.47;88.59;98083.84;1750440;82;20903;-59
2022/07/05 01:09:24;;;;;;;9.33;6.40;;;;;;;18.46;88.69;98079.56;1750601;82;21010;-59
2022/07/05 01:11:51;;;;;;;7.53;6.72;;;;;;;18.45;88.68;98083.36;1750547;82;21386;-59
2022/07/05 01:14:21;;;;;;;11.90;7.40;;;;;;;18.41;88.82;98082.46;1750510;82;20943;-59
2022/07/05 01:16:49;;;;;;;9.38;7.35;;;;;;;18.38;88.96;98087.99;1750293;82;21099;-63
2022/07/05 01:19:16;;;;;;;7.25;6.55;;;;;;;18.39;89.06;98084.72;1750420;82;20923;-63
2022/07/05 01:21:47;;;;;;;9.95;6.67;;;;;;;18.37;89.01;98081.56;1750465;82;21054;-62
2022/07/05 01:24:15;;;;;;;9.53;7.30;;;;;;;18.35;89.11;98083.80;1750598;82;20867;-59
2022/07/05 01:26:45;;;;;;;9.68;7.37;;;;;;;18.35;89.15;98088.66;1750514;82;21489;-61
2022/07/05 01:29:12;;;;;;;7.95;7.10;;;;;;;18.30;89.11;98094.89;1750581;82;21073;-61
2022/07/05 01:31:39;;;;;;;12.35;7.50;;;;;;;18.26;89.11;98089.89;1750511;82;21029;-60
2022/07/05 01:34:06;;;;;;;9.93;7.08;;;;;;;18.22;89.10;98097.13;1750580;82;20926;-61
2022/07/05 01:36:34;;;;;;;9.43;6.62;;;;;;;18.17;89.10;98099.50;1750463;82;20950;-59
2022/07/05 01:39:03;;;;;;;8.65;6.70;;;;;;;18.15;89.19;98104.47;1750797;82;21519;-64
2022/07/05 01:41:30;;;;;;;7.42;6.37;;;;;;;18.13;89.20;98108.64;1750115;82;21098;-63
2022/07/05 01:43:58;;;;;;;11.57;6.67;;;;;;;18.09;89.19;98105.03;1750415;82;20902;-63
2022/07/05 01:46:26;;;;;;;10.23;7.05;;;;;;;18.06;89.31;98107.05;1750570;82;20934;-61
2022/07/05 01:48:55;;;;;;;7.37;6.67;;;;;;;18.07;89.34;98109.97;1750451;82;20938;-63
2022/07/05 01:51:27;;;;;;;7.55;6.28;;;;;;;18.06;89.42;98105.69;1750588;82;21493;-59
2022/07/05 01:53:53;;;;;;;8.93;7.05;;;;;;;18.00;89.34;98112.44;1750001;82;21069;-58
2022/07/05 01:56:20;;;;;;;7.70;6.90;;;;;;;17.93;89.50;98108.92;1750402;82;20994;-60
2022/07/05 01:58:46;;;;;;;9.33;7.10;;;;;;;17.92;89.65;98111.42;1750458;81;20903;-60
2022/07/05 02:01:13;;;;;;;10.63;7.78;;;;;;;17.91;89.69;98112.53;1750483;81;20950;-58
2022/07/05 02:03:40;;;;;;;10.58;7.30;;;;;;;17.94;89.73;98117.84;1750442;82;20927;-58
2022/07/05 02:06:10;;;;;;;6.83;6.00;;;;;;;17.91;89.71;98117.95;1750643;82;21540;-58
2022/07/05 02:08:36;;;;;;;8.58;7.30;;;;;;;17.91;89.79;98122.58;1750382;82;20863;-63
2022/07/05 02:11:05;;;;;;;8.03;7.22;;;;;;;17.90;89.72;98119.06;1750482;82;20887;-61
2022/07/05 02:13:32;;;;;;;7.83;7.05;;;;;;;17.88;89.67;98123.23;1750511;82;20914;-63
2022/07/05 02:15:59;;;;;;;11.55;7.45;;;;;;;17.85;89.69;98123.37;1750434;82;20993;-63
2022/07/05 02:18:26;;;;;;;10.05;6.75;;;;;;;17.81;89.59;98126.49;1750448;82;21063;-64
2022/07/05 02:20:53;;;;;;;11.55;7.10;;;;;;;17.76;89.44;98122.08;1750378;82;20934;-62
2022/07/05 02:23:20;;;;;;;7.50;6.72;;;;;;;17.71;89.53;98123.63;1750407;82;20993;-62
2022/07/05 02:25:47;;;;;;;7.58;6.87;;;;;;;17.71;89.75;98126.93;1750429;82;20914;-63
2022/07/05 02:28:15;;;;;;;7.53;6.83;;;;;;;17.71;89.90;98127.70;1750453;82;20926;-63
2022/07/05 02:30:44;;;;;;;7.95;7.17;;;;;;;17.70;90.02;98124.78;1750525;82;21218;-64
2022/07/05 02:33:11;;;;;;;8.78;7.15;;;;;;;17.70;90.09;98118.00;1750461;81;20942;-59
2022/07/05 02:35:37;;;;;;;9.00;6.53;;;;;;;17.74;90.20;98124.89;1750528;82;20934;-59
2022/07/05 02:38:04;;;;;;;7.55;6.78;;;;;;;17.76;90.23;98127.50;1750515;82;20903;-60
2022/07/05 02:40:31;;;;;;;9.80;7.42;;;;;;;17.75;90.28;98123.22;1750444;82;21026;-64
2022/07/05 02:42:59;;;;;;;9.90;7.65;;;;;;;17.71;90.51;98119.57;1750386;82;21239;-60
2022/07/05 02:45:26;;;;;;;7.92;7.15;;;;;;;17.68;90.83;98112.13;1750357;82;20887;-60
2022/07/05 02:47:55;;;;;;;8.05;6.05;;;;;;;17.70;91.29;98120.72;1750497;81;20931;-60
2022/07/05 02:50:21;;;;;;;17.37;7.65;;;;;;;17.78;91.46;98119.82;1750500;82;21002;-60
2022/07/05 02:52:49;;;;;;;15.28;7.90;;;;;;;17.81;91.03;98127.05;1750536;81;21504;-63
2022/07/05 02:55:18;;;;;;;12.68;7.50;;;;;;;17.78;90.77;98123.67;1750411;82;21109;-59
2022/07/05 02:57:45;;;;;;;8.13;7.25;;;;;;;17.74;90.58;98133.02;1750462;82;20851;-65
2022/07/05 03:00:13;;;;;;;10.40;7.67;;;;;;;17.73;90.43;98134.92;1750340;80;20942;-64
2022/07/05 03:02:42;;;;;;;10.13;7.65;;;;;;;17.71;90.36;98130.41;1750337;82;21062;-60
2022/07/05 03:05:09;;;;;;;8.68;7.50;;;;;;;17.69;90.41;98132.66;1750631;82;21569;-60
2022/07/05 03:07:37;;;;;;;10.18;8.13;;;;;;;17.72;90.40;98142.04;1750513;82;21221;-59
2022/07/05 03:10:05;;;;;;;10.18;7.33;;;;;;;17.72;90.41;98139.33;1750345;82;20895;-63
2022/07/05 03:12:34;;;;;;;11.68;7.83;;;;;;;17.70;90.32;98138.32;1750507;82;20867;-64
2022/07/05 03:15:01;;;;;;;9.83;7.17;;;;;;;17.69;90.24;98138.08;1750394;82;20958;-60
2022/07/05 03:17:28;;;;;;;9.80;6.80;;;;;;;17.71;90.20;98145.30;1750503;82;20996;-63
2022/07/05 03:19:56;;;;;;;7.37;6.67;;;;;;;17.70;90.24;98139.67;1750419;82;21232;-60
2022/07/05 03:22:22;;;;;;;11.80;7.37;;;;;;;17.71;90.38;98141.83;1750335;82;20942;-59
2022/07/05 03:24:49;;;;;;;8.48;7.08;;;;;;;17.76;90.56;98150.52;1750403;82;20982;-62
2022/07/05 03:27:16;;;;;;;9.00;7.70;;;;;;;17.80;90.59;98148.52;1750546;82;20938;-60
2022/07/05 03:29:44;;;;;;;12.05;7.25;;;;;;;17.85;90.50;98149.66;1750594;82;20935;-59
2022/07/05 03:32:11;;;;;;;8.08;6.83;;;;;;;17.89;90.50;98147.30;1750671;82;21878;-64
2022/07/05 03:34:38;;;;;;;8.33;7.20;;;;;;;17.95;90.52;98146.52;1750500;82;20895;-64
2022/07/05 03:37:06;;;;;;;8.55;7.67;;;;;;;17.99;90.58;98152.88;1744333;82;21433;-62
2022/07/05 03:39:33;;;;;;;9.70;7.40;;;;;;;18.03;90.74;98157.84;1750645;82;20950;-64
2022/07/05 03:42:00;;;;;;;9.80;6.95;;;;;;;18.11;90.87;98151.55;1750524;82;20993;-62
2022/07/05 03:44:31;;;;;;;6.92;6.22;;;;;;;18.18;90.80;98153.16;1750735;82;21593;-65
2022/07/05 03:46:57;;;;;;;8.75;7.58;;;;;;;18.27;90.77;98155.20;1750633;82;20935;-61
2022/07/05 03:49:25;;;;;;;8.18;7.25;;;;;;;18.33;90.78;98156.55;1750557;82;20867;-62
2022/07/05 03:51:52;;;;;;;9.85;7.22;;;;;;;18.39;90.80;98149.80;1750603;82;20955;-59
2022/07/05 03:54:19;;;;;;;11.33;7.62;;;;;;;18.46;90.79;98151.42;1750562;82;21029;-61
2022/07/05 03:56:46;;;;;;;12.98;7.53;;;;;;;18.53;90.74;98155.73;1750759;82;21407;-61
2022/07/05 03:59:13;;;;;;;11.05;6.70;;;;;;;18.61;90.65;98155.38;1750584;82;21406;-63
2022/07/05 04:01:39;;;;;;;13.55;7.55;;;;;;;18.67;90.57;98149.97;1748641;81;20982;-59
2022/07/05 04:04:06;;;;;;;15.95;7.25;;;;;;;18.74;90.55;98145.56;1748305;82;21418;-63
2022/07/05 04:06:33;;;;;;;11.48;7.25;;;;;;;18.83;90.49;98140.02;1748270;82;20903;-60
2022/07/05 04:09:00;;;;;;;12.65;7.62;;;;;;;18.90;90.32;98135.61;1748134;82;21274;-65
2022/07/05 04:11:27;;;;;;;12.37;7.67;;;;;;;18.98;90.13;98141.46;1748173;82;20927;-62
2022/07/05 04:13:55;;;;;;;10.28;6.80;;;;;;;19.06;89.85;98135.69;1748134;82;20856;-62
2022/07/05 04:16:22;;;;;;;12.63;6.80;;;;;;;19.13;89.55;98138.06;1748121;82;20955;-64
2022/07/05 04:18:48;;;;;;;13.55;8.10;;;;;;;19.22;89.39;98135.80;1748156;82;21048;-60
2022/07/05 04:21:15;;;;;;;17.87;7.97;;;;;;;19.30;89.27;98132.14;1748497;82;21244;-61
2022/07/05 04:23:48;;;;;;;13.28;8.03;;;;;;;19.39;89.15;98126.03;1748435;82;20875;-64
2022/07/05 04:26:17;;;;;;;14.80;7.30;;;;;;;19.48;88.98;98119.89;1752178;81;20906;-65
2022/07/05 04:28:45;;;;;;;13.53;7.12;;;;;;;19.59;88.70;98119.08;1748210;82;21454;-62
2022/07/05 04:31:15;;;;;;;17.32;7.70;;;;;;;19.69;88.35;98124.00;1748459;82;21407;-60
2022/07/05 04:33:43;;;;;;;14.80;7.15;;;;;;;19.78;88.13;98117.08;1748191;82;21209;-60
2022/07/05 04:36:10;;;;;;;12.88;7.58;;;;;;;19.87;87.73;98119.63;1748363;81;21457;-63
2022/07/05 04:38:37;;;;;;;18.75;8.10;;;;;;;19.95;87.51;98119.46;1748079;82;20926;-59
2022/07/05 04:41:04;;;;;;;12.53;7.72;;;;;;;20.05;87.28;98117.60;1748092;82;20995;-64
2022/07/05 04:43:32;;;;;;;17.52;7.50;;;;;;;20.17;87.12;98119.45;1748126;82;20993;-62
2022/07/05 04:45:59;;;;;;;15.28;7.58;;;;;;;20.29;86.88;98119.41;1748184;82;21663;-63
2022/07/05 04:48:26;;;;;;;14.10;6.95;;;;;;;20.40;86.73;98118.54;1748041;82;20863;-64
2022/07/05 04:50:53;;;;;;;13.80;6.12;;;;;;;20.56;86.47;98121.25;1748203;82;20867;-62
2022/07/05 04:53:20;;;;;;;11.10;6.47;;;;;;;20.69;85.43;98110.50;1748197;81;20935;-62
2022/07/05 04:55:46;;;;;;;17.75;5.75;;;;;;;20.84;84.15;98115.71;1748191;82;20908;-60
2022/07/05 04:58:13;;;;;;;9.88;6.03;;;;;;;20.99;82.74;98114.88;1748098;82;21126;-61
2022/07/05 05:00:40;;;;;;;13.48;5.87;;;;;;;21.12;81.76;98112.30;1748862;81;20939;-64
2022/07/05 05:03:06;;;;;;;10.43;6.15;;;;;;;21.23;80.55;98111.95;1751440;82;21311;-60
2022/07/05 05:05:33;;;;;;;12.85;6.28;;;;;;;21.37;79.68;98121.78;1751385;81;20946;-64
2022/07/05 05:07:59;;;;;;;16.35;6.20;;;;;;;21.49;78.97;98115.41;1751411;82;20954;-62
2022/07/05 05:10:26;;;;;;;18.17;7.08;;;;;;;21.59;78.67;98118.36;1751279;82;21234;-64
2022/07/05 05:12:53;;;;;;;12.00;5.80;;;;;;;21.71;78.21;98120.94;1751218;81;20899;-63
2022/07/05 05:15:21;;;;;;;8.15;4.90;;;;;;;21.80;77.11;98117.42;1751271;82;20922;-63
2022/07/05 05:17:47;;;;;;;11.12;5.08;;;;;;;21.92;76.34;98115.70;1751350;82;21515;-60
2022/07/05 05:20:16;;;;;;;13.22;5.78;;;;;;;22.00;75.61;98115.47;1751714;81;21430;-64
2022/07/05 05:22:43;;;;;;;14.35;5.65;;;;;;;22.09;75.70;98117.98;1751514;82;21055;-65
2022/07/05 05:25:10;;;;;;;9.73;5.30;;;;;;;22.16;75.44;98124.92;1751212;81;20907;-64
2022/07/05 05:27:44;;;;;;;10.30;4.97;;;;;;;22.24;75.10;98127.98;1751258;81;20997;-62
2022/07/05 05:30:13;;;;;;;9.63;4.17;;;;;;;22.31;74.55;98130.27;1737433;81;20974;-64
2022/07/05 05:32:39;;;;;;;11.68;4.92;;;;;;;22.39;73.92;98122.42;1742451;82;21505;-63
2022/07/05 05:35:07;;;;;;;7.83;4.12;;;;;;;22.49;73.45;98129.98;1742241;82;21786;-62
2022/07/05 05:37:51;;;;;;;13.72;4.67;;;;;;;22.58;73.01;98129.75;1737886;81;20884;-65
2022/07/05 05:40:19;;;;;;;8.55;4.00;;;;;;;22.68;72.07;98136.58;1743446;82;21439;-61
2022/07/05 05:42:46;;;;;;;6.85;4.00;;;;;;;22.76;71.72;98143.13;1787804;79;20930;-63
2022/07/05 05:45:13;;;;;;;9.03;3.90;;;;;;;22.84;70.93;98144.84;1786813;78;20924;-65
2022/07/05 05:47:57;;;;;;;6.87;4.25;;;;;;;22.93;70.68;98143.20;1777647;80;21159;-55
2022/07/05 05:50:30;;;;;;;4.53;3.83;;;;;;;23.00;70.63;98146.83;1750327;81;20858;-59
2022/07/05 05:52:58;;;;;;;4.83;3.40;;;;;;;23.06;70.01;98149.45;1758815;81;33644;-61
2022/07/05 05:55:25;;;;;;;7.40;3.90;;;;;;;23.10;69.58;98148.15;1758785;81;20930;-62
2022/07/05 05:57:52;;;;;;;7.37;3.80;;;;;;;23.13;69.41;98149.55;1759217;81;20974;-62
2022/07/05 06:00:19;;;;;;;4.22;3.37;;;;;;;23.19;68.86;98151.97;1758902;81;21228;-62
2022/07/05 06:02:47;;;;;;;4.22;3.52;;;;;;;23.25;68.37;98154.61;1726553;81;21403;-65
2022/07/05 06:05:13;;;;;;;8.05;3.47;;;;;;;23.32;68.24;98154.11;1759175;81;20903;-63
2022/07/05 06:07:51;;;;;;;5.33;3.67;;;;;;;23.39;68.64;98150.14;1724149;81;20957;-62
2022/07/05 06:10:31;;;;;;;4.92;3.55;;;;;;;23.48;68.83;98150.64;1742178;81;20898;-62
2022/07/05 06:13:01;;;;;;;4.08;3.45;;;;;;;23.58;68.37;98145.91;1728759;83;21176;-63
2022/07/05 06:15:28;;;;;;;3.90;3.50;;;;;;;23.67;67.76;98135.47;1730246;80;20934;-65
2022/07/05 06:17:55;;;;;;;3.72;3.40;;;;;;;23.79;66.96;98139.90;1758137;80;20922;-64
2022/07/05 06:20:24;;;;;;;6.85;3.52;;;;;;;23.88;67.28;98137.69;1758410;80;21001;-62
2022/07/05 06:22:51;;;;;;;4.12;3.40;;;;;;;23.98;67.23;98138.94;1758861;81;20890;-64
2022/07/05 06:25:18;;;;;;;6.97;3.60;;;;;;;24.07;66.98;98135.38;1758882;81;21103;-63
2022/07/05 06:27:52;;;;;;;6.95;3.60;;;;;;;24.13;66.66;98129.77;1758812;81;20876;-65
2022/07/05 06:30:24;;;;;;;5.70;3.30;;;;;;;24.20;66.55;98132.00;1722886;82;20966;-63
2022/07/05 06:32:55;;;;;;;9.03;3.90;;;;;;;24.26;65.53;98135.95;1730991;81;20898;-64
2022/07/05 06:35:25;;;;;;;4.45;3.30;;;;;;;24.32;65.23;98138.57;1758848;81;20851;-63
2022/07/05 06:38:05;;;;;;;4.83;3.37;;;;;;;24.39;64.87;98142.74;1759166;81;21517;-67
2022/07/05 06:40:42;;;;;;;7.53;3.72;;;;;;;24.46;64.20;98144.17;1707381;81;21053;-66
2022/07/05 06:43:10;;;;;;;8.28;3.90;;;;;;;24.55;64.21;98145.22;1759335;81;21032;-65
2022/07/05 06:45:39;;;;;;;7.67;3.42;;;;;;;24.64;64.90;98139.41;1744920;80;21017;-64
2022/07/05 06:48:09;;;;;;;4.80;3.00;;;;;;;24.73;64.46;98141.28;1745917;80;20931;-61
2022/07/05 06:50:39;;;;;;;7.78;3.10;;;;;;;24.78;63.70;98141.72;1751470;81;21860;-63
2022/07/05 06:53:06;;;;;;;5.37;3.47;;;;;;;24.91;61.54;98147.13;1764495;80;20939;-60
2022/07/05 06:55:33;;;;;;;5.25;3.50;;;;;;;24.91;61.54;98147.13;1724798;81;21012;-63
2022/07/05 06:58:07;;;;;;;4.37;3.52;;;;;;;24.98;61.92;98141.70;1743328;81;21186;-64
2022/07/05 07:00:35;;;;;;;4.03;3.17;;;;;;;25.05;62.88;98141.74;1749968;81;20867;-62
2022/07/05 07:03:02;;;;;;;5.90;3.58;;;;;;;25.08;62.33;98140.20;1747781;80;21107;-61
2022/07/05 07:05:28;;;;;;;4.28;3.42;;;;;;;25.12;62.27;98139.63;1753281;81;20961;-61
2022/07/05 07:10:41;;;;;;;4.78;3.15;;;;;;;25.24;61.76;98139.89;1751676;80;21401;-60
2022/07/05 07:13:09;;;;;;;5.75;3.30;;;;;;;25.37;59.40;98136.44;1753044;82;20967;-63
2022/07/05 07:15:35;;;;;;;4.95;3.40;;;;;;;25.37;59.40;98136.44;1753218;82;21115;-67
2022/07/05 07:18:02;;;;;;;7.83;3.55;;;;;;;25.41;59.91;98132.36;1753146;82;20977;-66
2022/07/05 07:20:28;;;;;;;5.97;3.30;;;;;;;25.44;59.26;98138.45;1734164;82;20954;-67
2022/07/05 07:22:55;;;;;;;5.40;3.15;;;;;;;25.56;59.54;98136.18;1745946;80;20903;-65
2022/07/05 07:25:23;;;;;;;3.37;3.02;;;;;;;25.56;59.54;98136.18;1743456;82;20954;-61
2022/07/05 07:27:55;;;;;;;5.55;3.60;;;;;;;25.61;58.94;98134.44;1744531;81;21265;-63
2022/07/05 07:30:24;;;;;;;4.30;3.00;;;;;;;25.66;58.18;98124.47;1750604;82;20886;-62
2022/07/05 07:32:52;;;;;;;3.98;3.25;;;;;;;25.75;56.88;98134.50;1753310;82;20962;-66
2022/07/05 07:35:19;;;;;;;5.87;3.17;;;;;;;25.80;55.43;98134.70;1721582;83;21016;-63
2022/07/05 07:37:45;;;;;;;3.72;3.17;;;;;;;25.87;55.37;98133.94;1753472;82;21380;-64
2022/07/05 07:40:12;;;;;;;4.97;3.33;;;;;;;25.93;55.30;98137.89;1753802;81;21528;-63
2022/07/05 07:42:38;;;;;;;4.75;3.30;;;;;;;26.00;55.06;98135.17;1740872;82;20918;-64
2022/07/05 07:45:07;;;;;;;3.85;3.45;;;;;;;26.07;54.51;98142.05;1707199;82;20900;-67
2022/07/05 07:47:35;;;;;;;4.87;3.17;;;;;;;26.13;54.55;98141.31;1752563;80;20883;-66
2022/07/05 07:50:03;;;;;;;6.67;3.20;;;;;;;26.20;52.09;98135.05;1742238;82;20996;-61
2022/07/05 07:52:33;;;;;;;4.25;3.22;;;;;;;26.25;53.06;98136.04;1741934;81;21906;-61
2022/07/05 07:55:01;;;;;;;4.75;3.20;;;;;;;26.31;52.29;98136.63;1742242;82;20975;-65
2022/07/05 07:57:28;;;;;;;3.52;3.20;;;;;;;26.38;53.02;98139.97;1741573;81;20893;-66
2022/07/05 07:59:55;;;;;;;7.42;3.50;;;;;;;26.43;52.55;98132.14;1742327;82;20956;-61
2022/07/05 08:02:22;;;;;;;3.87;3.27;;;;;;;26.50;52.38;98125.86;1742122;82;20999;-66
2022/07/05 08:04:53;;;;;;;6.60;3.55;;;;;;;26.59;52.37;98130.98;1740885;81;22107;-65
2022/07/05 08:07:20;;;;;;;5.33;3.25;;;;;;;26.66;53.00;98135.90;1742275;82;20991;-62
2022/07/05 08:09:47;;;;;;;3.90;3.30;;;;;;;26.70;51.26;98134.52;1742162;82;20887;-67
2022/07/05 08:12:13;;;;;;;5.75;3.27;;;;;;;26.75;51.81;98129.45;1742137;81;20900;-65
2022/07/05 08:14:41;;;;;;;5.60;3.45;;;;;;;26.81;51.99;98130.61;1739870;80;21003;-62
2022/07/05 08:17:08;;;;;;;4.97;3.40;;;;;;;26.88;50.89;98119.61;1720168;83;21271;-65
2022/07/05 08:22:25;;;;;;;4.92;3.40;;;;;;;26.90;49.18;98120.00;1751467;81;20922;-59
2022/07/05 08:24:52;;;;;;;6.05;3.72;;;;;;;26.96;50.45;98114.31;1719719;83;20986;-65
2022/07/05 08:27:18;;;;;;;4.03;3.55;;;;;;;27.04;50.23;98117.23;1753352;81;20843;-62
2022/07/05 08:29:46;;;;;;;8.78;3.70;;;;;;;27.16;50.18;98111.91;1752230;81;21115;-63
2022/07/05 08:32:13;;;;;;;3.92;3.35;;;;;;;27.27;49.35;98111.89;1735398;82;20936;-63
2022/07/05 08:34:39;;;;;;;5.37;3.52;;;;;;;27.35;48.02;98109.30;1736014;82;21075;-62
2022/07/05 08:37:06;;;;;;;5.05;3.75;;;;;;;27.38;47.68;98108.55;1735935;82;21000;-64
2022/07/05 08:39:33;;;;;;;4.87;3.30;;;;;;;27.44;48.12;98106.97;1736803;82;20940;-63
2022/07/05 08:42:01;;;;;;;4.85;3.33;;;;;;;27.50;47.59;98110.28;1736171;82;21101;-63
2022/07/05 08:44:30;;;;;;;5.30;3.95;;;;;;;27.56;47.69;98107.88;1719061;83;21384;-63
2022/07/05 08:46:57;;;;;;;3.92;3.52;;;;;;;27.65;49.42;98109.64;1742549;80;21034;-60
2022/07/05 08:49:26;;;;;;;4.20;3.65;;;;;;;27.71;47.91;98110.78;1739382;80;20910;-62
2022/07/05 08:51:55;;;;;;;5.22;3.50;;;;;;;27.77;48.26;98114.67;1730815;82;21015;-64
2022/07/05 08:54:23;;;;;;;5.83;3.00;;;;;;;27.86;48.13;98110.91;1770579;80;21288;-62
2022/07/05 08:56:51;;;;;;;3.60;3.17;;;;;;;27.95;47.83;98111.25;1751021;80;21039;-61
2022/07/05 08:59:18;;;;;;;3.35;3.05;;;;;;;28.02;46.25;98112.63;1741564;80;21000;-63
2022/07/05 09:01:45;;;;;;;5.35;3.25;;;;;;;28.11;46.69;98108.83;1730703;81;21169;-62
2022/07/05 09:04:11;;;;;;;4.08;3.25;;;;;;;28.18;44.99;98105.23;1725295;80;21058;-63
2022/07/05 09:06:39;;;;;;;3.40;3.10;;;;;;;28.18;44.63;98106.61;1736012;82;21256;-61
2022/07/05 09:09:06;;;;;;;8.40;3.20;;;;;;;28.20;44.29;98105.03;1731920;82;20971;-61
2022/07/05 09:11:38;;;;;;;4.42;3.20;;;;;;;28.26;46.13;98104.78;1743144;80;20927;-64
2022/07/05 09:14:07;;;;;;;3.50;3.05;;;;;;;28.36;46.16;98104.52;1740087;82;20943;-64
2022/07/05 09:16:34;;;;;;;4.42;3.08;;;;;;;28.44;45.47;98106.05;1740273;82;21046;-60
2022/07/05 09:19:06;;;;;;;3.52;2.90;;;;;;;28.52;44.88;98102.06;1737060;81;21076;-59
2022/07/05 09:21:33;;;;;;;2.75;2.55;;;;;;;28.59;44.20;98102.59;1732980;81;20920;-61
2022/07/05 09:24:06;;;;;;;3.65;2.72;;;;;;;28.67;43.79;98101.35;1745732;81;21089;-60
2022/07/05 09:26:43;;;;;;;3.50;3.17;;;;;;;28.73;43.28;98105.25;1743778;80;21006;-61
2022/07/05 09:29:12;;;;;;;5.37;3.10;;;;;;;28.81;42.71;98105.36;1748068;81;21062;-62
2022/07/05 09:31:41;;;;;;;8.95;3.15;;;;;;;28.84;42.19;98101.80;1730387;82;21256;-59
2022/07/05 09:34:15;;;;;;;3.02;2.72;;;;;;;28.85;42.55;98101.38;1743659;81;21019;-60
2022/07/05 09:36:56;;;;;;;3.35;2.80;;;;;;;28.84;41.95;98097.66;1749890;80;21474;-60
2022/07/05 09:39:37;;;;;;;3.92;3.25;;;;;;;28.83;41.85;98096.12;1728001;81;20964;-58
2022/07/05 09:42:22;;;;;;;4.65;3.00;;;;;;;28.88;42.48;98091.52;1746575;81;21058;-59
2022/07/05 09:44:50;;;;;;;3.20;2.90;;;;;;;28.98;44.92;98096.15;1746999;81;21041;-60
2022/07/05 09:47:19;;;;;;;3.50;2.75;;;;;;;29.07;41.78;98097.83;1726737;81;21590;-59
2022/07/05 09:49:51;;;;;;;19.30;3.42;;;;;;;29.11;41.67;98088.95;1721300;81;21136;-62
2022/07/05 09:52:34;;;;;;;3.00;2.70;;;;;;;29.19;43.29;98091.03;1731316;81;21074;-60
2022/07/05 09:55:18;;;;;;;3.90;2.75;;;;;;;29.30;42.07;98091.10;1744609;81;20998;-60
2022/07/05 09:57:47;;;;;;;4.40;2.90;;;;;;;29.33;42.10;98079.84;1734335;80;21097;-61
2022/07/05 10:00:18;;;;;;;4.95;3.15;;;;;;;29.36;41.52;98077.06;1739456;80;21026;-61
2022/07/05 10:02:48;;;;;;;6.25;3.30;;;;;;;29.42;42.08;98076.78;1732064;80;21052;-60
2022/07/05 10:05:20;;;;;;;3.55;2.80;;;;;;;29.49;41.56;98080.83;1721914;82;21074;-61
2022/07/05 10:07:52;;;;;;;5.12;2.60;;;;;;;29.52;39.88;98071.73;1718512;83;21002;-61
2022/07/05 10:10:23;;;;;;;5.47;3.08;;;;;;;29.50;41.01;98075.52;1714847;82;21131;-62
2022/07/05 10:12:53;;;;;;;4.15;2.77;;;;;;;29.53;40.72;98073.91;1715276;82;21003;-62
2022/07/05 10:15:26;;;;;;;6.05;2.60;;;;;;;29.54;40.66;98073.48;1710514;82;21595;-61
2022/07/05 10:18:15;;;;;;;4.08;2.35;;;;;;;29.56;40.37;98066.95;1717391;82;20986;-67
2022/07/05 10:20:43;;;;;;;4.28;2.60;;;;;;;29.60;40.10;98071.84;1712489;83;21087;-69
2022/07/05 10:23:16;;;;;;;2.98;2.65;;;;;;;29.59;40.89;98070.86;1712608;83;20991;-64
2022/07/05 10:25:48;;;;;;;3.17;2.42;;;;;;;29.63;40.23;98073.75;1722422;81;22280;-64
2022/07/05 10:28:20;;;;;;;2.72;2.52;;;;;;;29.64;39.44;98073.95;1731546;82;20932;-60
2022/07/05 10:30:49;;;;;;;4.25;2.50;;;;;;;29.65;38.63;98071.36;1684796;85;21149;-62
2022/07/05 10:33:20;;;;;;;2.92;2.40;;;;;;;29.64;39.60;98068.43;1720208;82;21549;-62
2022/07/05 10:35:47;;;;;;;3.72;2.67;;;;;;;29.69;40.55;98067.19;1720732;82;21130;-64
2022/07/05 10:38:14;;;;;;;3.08;2.40;;;;;;;29.75;40.19;98066.89;1697597;83;21031;-62
2022/07/05 10:40:41;;;;;;;4.95;2.60;;;;;;;29.81;40.03;98068.05;1686057;82;20980;-64
2022/07/05 10:43:10;;;;;;;4.85;2.50;;;;;;;29.88;39.97;98060.25;1724571;82;21065;-62
2022/07/05 10:45:39;;;;;;;2.77;2.27;;;;;;;29.95;39.13;98062.91;1718553;81;20928;-63
2022/07/05 10:48:23;;;;;;;2.87;2.40;;;;;;;29.97;39.54;98062.69;1687836;83;21791;-63
2022/07/05 10:51:10;;;;;;;3.00;2.45;;;;;;;30.04;40.17;98061.79;1682800;85;20995;-66
2022/07/05 10:53:42;;;;;;;2.67;2.47;;;;;;;30.07;40.41;98062.34;1717640;81;20987;-65
2022/07/05 10:56:11;;;;;;;7.25;2.50;;;;;;;30.11;39.77;98054.78;1724306;82;21006;-64
2022/07/05 10:58:48;;;;;;;6.12;2.95;;;;;;;30.17;40.88;98047.61;1684771;85;21633;-62
2022/07/05 11:01:28;;;;;;;3.87;2.37;;;;;;;30.20;40.03;98054.44;1683210;84;21120;-65
2022/07/05 11:04:05;;;;;;;3.77;2.55;;;;;;;30.25;39.77;98048.45;1735479;80;20971;-65
2022/07/05 11:06:42;;;;;;;3.85;2.50;;;;;;;30.29;39.15;98045.64;1738048;82;21123;-62
2022/07/05 11:09:15;;;;;;;3.87;2.70;;;;;;;30.30;38.04;98041.66;1730629;81;21059;-63
2022/07/05 11:11:44;;;;;;;2.92;2.20;;;;;;;30.32;38.62;98039.26;1735964;82;21525;-62
2022/07/05 11:14:28;;;;;;;5.42;2.37;;;;;;;30.35;38.08;98040.63;1739332;81;21155;-65
2022/07/05 11:17:15;;;;;;;2.65;2.33;;;;;;;30.41;38.40;98038.14;1730106;82;21063;-60
2022/07/05 11:20:13;;;;;;;2.98;2.40;;;;;;;30.40;37.33;98040.16;1714876;83;21058;-61
2022/07/05 11:23:01;;;;;;;2.98;2.30;;;;;;;30.27;35.40;98040.52;1721145;83;21062;-61
2022/07/05 11:25:32;;;;;;;2.58;2.15;;;;;;;30.17;35.88;98037.31;1717686;83;21504;-60
2022/07/05 11:28:09;;;;;;;5.62;2.20;;;;;;;30.18;35.90;98037.51;1737054;80;21103;-59
2022/07/05 11:30:54;;;;;;;5.40;2.10;;;;;;;30.25;37.63;98025.56;1720195;82;20973;-62
2022/07/05 11:33:31;;;;;;;4.42;2.20;;;;;;;30.40;37.88;98028.31;1734836;81;21553;-60
2022/07/05 11:35:58;;;;;;;4.08;2.37;;;;;;;30.59;37.64;98026.21;1759530;81;21054;-60
2022/07/05 11:38:26;;;;;;;3.02;2.20;;;;;;;30.73;35.07;98021.81;1737125;81;20991;-65
2022/07/05 11:40:56;;;;;;;4.12;2.20;;;;;;;30.87;36.72;98016.02;1730067;81;21106;-66
2022/07/05 11:43:29;;;;;;;2.98;2.45;;;;;;;31.08;34.85;98017.02;1724114;83;21106;-60
2022/07/05 11:46:02;;;;;;;2.50;2.27;;;;;;;31.25;33.91;98006.81;1722748;81;21413;-61